Time;durP1;ratioP1;P1;durP2;ratioP2;P2;SDS_P1;SDS_P2;PMS_P1;PMS_P2;Temp;Humidity;BMP_temperature;BMP_pressure;BME280_temperature;BME280_humidity;BME280_pressure;Samples;Min_cycle;Max_cycle;Signal;HPM_P1;HPM_P2
2021/07/24 00:01:08;;;;;;;13.68;10.63;;;20.70;62.50;;;19.80;59.82;95610.53;5000422;28;20041;-67
2021/07/24 00:03:34;;;;;;;13.30;10.60;;;20.60;62.70;;;19.75;59.94;95610.50;5006517;28;20434;-68
2021/07/24 00:06:00;;;;;;;15.23;10.27;;;20.60;62.90;;;19.70;60.77;95621.16;4996395;28;20035;-67
2021/07/24 00:08:26;;;;;;;16.45;10.55;;;20.60;63.30;;;19.62;60.53;95613.63;4957345;28;20053;-67
2021/07/24 00:10:52;;;;;;;14.32;10.43;;;20.50;63.50;;;19.57;60.13;95611.72;5001019;28;20678;-67
2021/07/24 00:13:17;;;;;;;13.13;10.18;;;20.50;63.70;;;19.56;60.96;95618.13;4971302;28;20117;-67
2021/07/24 00:15:43;;;;;;;20.02;11.23;;;20.40;63.80;;;19.57;61.07;95617.88;4978842;28;20038;-67
2021/07/24 00:18:09;;;;;;;14.25;10.98;;;20.40;63.80;;;19.54;60.19;95615.72;5010159;28;20034;-69
2021/07/24 00:20:34;;;;;;;14.82;10.40;;;20.40;63.90;;;19.52;61.29;95612.47;4970163;28;20030;-67
2021/07/24 00:23:00;;;;;;;16.70;10.80;;;20.50;64.00;;;19.52;61.50;95612.47;4970197;28;20664;-68
2021/07/24 00:25:27;;;;;;;15.32;10.63;;;20.40;64.10;;;19.50;60.63;95606.59;4983380;28;20035;-66
2021/07/24 00:27:52;;;;;;;13.40;10.98;;;20.40;64.20;;;19.47;61.46;95599.09;4968538;28;20067;-67
2021/07/24 00:30:18;;;;;;;14.30;10.73;;;20.30;64.00;;;19.45;61.47;95606.53;4996304;28;20034;-67
2021/07/24 00:32:44;;;;;;;13.30;10.57;;;20.30;64.00;;;19.42;61.89;95599.06;4972697;28;20128;-67
2021/07/24 00:35:10;;;;;;;12.90;10.48;;;20.30;64.10;;;19.41;61.93;95585.97;4999242;28;20030;-67
2021/07/24 00:37:35;;;;;;;10.20;8.13;;;20.20;63.90;;;19.33;61.29;95586.47;5009061;28;20571;-67
2021/07/24 00:40:01;;;;;;;15.38;11.18;;;20.10;63.70;;;19.26;60.96;95584.03;5008480;28;20100;-67
2021/07/24 00:42:27;;;;;;;15.02;11.05;;;20.10;63.80;;;19.22;60.86;95590.91;4965555;28;20054;-67
2021/07/24 00:44:57;;;;;;;15.00;10.55;;;20.10;64.10;;;19.19;61.91;95578.09;4964470;28;20046;-68
2021/07/24 00:47:36;;;;;;;14.60;11.17;;;20.10;64.30;;;19.14;62.20;95580.72;5008907;28;20127;-68
2021/07/24 00:50:03;;;;;;;17.17;11.20;;;20.10;64.50;;;19.08;61.50;95576.41;4995248;28;20042;-67
2021/07/24 00:52:29;;;;;;;13.45;10.90;;;20.00;64.70;;;19.05;61.63;95569.72;4973690;28;20421;-67
2021/07/24 00:54:55;;;;;;;15.50;10.32;;;20.00;64.60;;;19.04;61.43;95567.31;4992378;28;20045;-68
2021/07/24 00:57:21;;;;;;;13.57;10.48;;;19.90;64.70;;;19.02;62.29;95561.44;4976811;28;20034;-66
2021/07/24 00:59:46;;;;;;;15.95;10.75;;;19.90;64.90;;;18.98;62.58;95559.25;4989236;28;20129;-67
2021/07/24 01:02:12;;;;;;;15.48;11.27;;;19.90;64.80;;;18.94;61.59;95560.84;4976448;28;20113;-67
2021/07/24 01:04:38;;;;;;;12.68;10.57;;;19.80;64.70;;;18.92;61.63;95552.31;5000730;28;20050;-67
2021/07/24 01:07:06;;;;;;;17.67;11.70;;;19.80;64.90;;;18.88;62.30;95556.53;4994473;28;20133;-68
2021/07/24 01:09:32;;;;;;;17.98;11.82;;;19.70;65.00;;;18.85;62.26;95551.72;4983574;28;20064;-67
2021/07/24 01:12:00;;;;;;;15.95;11.40;;;19.80;64.70;;;18.82;62.44;95551.44;5007484;28;20529;-67
2021/07/24 01:14:26;;;;;;;16.75;11.68;;;19.70;64.80;;;18.76;62.89;95553.22;4981031;28;20057;-67
2021/07/24 01:16:52;;;;;;;16.85;11.55;;;19.60;65.00;;;18.72;62.53;95546.78;4964215;28;20070;-67
2021/07/24 01:19:17;;;;;;;13.82;10.82;;;19.60;65.00;;;18.71;62.88;95553.19;4975727;28;20621;-66
2021/07/24 01:21:44;;;;;;;16.90;11.75;;;19.60;65.40;;;18.69;63.32;95552.63;4987680;28;20038;-65
2021/07/24 01:24:09;;;;;;;15.35;11.55;;;19.60;65.20;;;18.66;62.79;95545.94;4963793;28;20137;-66
2021/07/24 01:26:35;;;;;;;16.13;11.70;;;19.60;65.30;;;18.63;62.77;95551.00;4976488;28;20077;-65
2021/07/24 01:29:04;;;;;;;19.48;11.55;;;19.50;65.70;;;18.61;63.40;95550.41;4977410;28;20038;-65
2021/07/24 01:31:30;;;;;;;15.82;12.18;;;19.50;65.60;;;18.59;62.74;95552.53;4987048;28;20588;-68
2021/07/24 01:33:56;;;;;;;16.88;12.27;;;19.50;66.00;;;18.56;62.97;95547.72;4975155;28;20169;-66
2021/07/24 01:36:22;;;;;;;16.83;12.23;;;19.50;66.10;;;18.54;63.35;95553.25;4984811;28;20030;-67
2021/07/24 01:38:47;;;;;;;17.20;11.93;;;19.50;66.20;;;18.53;64.22;95553.50;4972449;28;20073;-67
2021/07/24 01:41:14;;;;;;;17.15;12.52;;;19.50;66.50;;;18.47;63.61;95547.34;4977175;28;20042;-67
2021/07/24 01:43:39;;;;;;;18.55;12.98;;;19.40;66.30;;;18.43;64.22;95543.56;5000169;28;20037;-67
2021/07/24 01:46:05;;;;;;;17.45;12.27;;;19.40;66.40;;;18.40;63.26;95548.59;4987445;28;20030;-65
2021/07/24 01:53:54;;;;;;;14.70;11.70;;;19.20;67.10;;;18.29;64.07;95532.50;5013128;28;20068;-66
2021/07/24 01:56:22;;;;;;;17.70;12.40;;;19.20;67.20;;;18.24;64.44;95535.13;4944058;28;20464;-65
2021/07/24 01:58:47;;;;;;;14.77;12.05;;;19.10;67.30;;;18.17;65.05;95523.88;4965308;28;20034;-65
2021/07/24 02:01:13;;;;;;;16.65;12.50;;;19.10;67.50;;;18.12;65.18;95537.16;4982037;28;20030;-66
2021/07/24 02:03:45;;;;;;;16.50;12.40;;;19.10;67.70;;;18.08;65.94;95529.88;4952837;28;20407;-65
2021/07/24 02:06:13;;;;;;;15.68;12.65;;;19.00;67.80;;;18.03;64.60;95528.78;4970028;28;20489;-66
2021/07/24 02:08:43;;;;;;;17.63;11.95;;;19.00;67.80;;;17.96;65.41;95522.06;4984303;28;20050;-66
2021/07/24 02:11:09;;;;;;;15.73;12.40;;;18.80;67.80;;;17.95;64.87;95529.22;4987292;28;20042;-66
2021/07/24 02:13:34;;;;;;;16.45;12.93;;;18.80;68.00;;;17.93;64.98;95530.53;5006269;28;20061;-67
2021/07/24 02:16:00;;;;;;;17.83;12.27;;;18.80;67.90;;;17.90;65.18;95528.38;5006508;28;20034;-65
2021/07/24 02:18:27;;;;;;;16.02;12.45;;;18.90;67.90;;;17.89;65.26;95537.41;4979957;28;20126;-66
2021/07/24 02:20:53;;;;;;;18.77;12.77;;;18.90;68.10;;;17.87;65.85;95534.16;4982372;28;20363;-65
2021/07/24 02:23:19;;;;;;;16.70;12.57;;;18.80;68.20;;;17.85;65.26;95537.06;4959014;28;20049;-67
2021/07/24 02:25:45;;;;;;;16.20;12.52;;;18.80;68.00;;;17.82;65.47;95531.44;4987275;28;20034;-65
2021/07/24 02:28:11;;;;;;;18.67;13.18;;;18.70;68.30;;;17.81;65.58;95541.28;4989795;23;20132;-69
2021/07/24 02:30:37;;;;;;;15.40;12.57;;;18.70;68.30;;;17.81;65.39;95543.16;4967168;28;20108;-69
2021/07/24 02:33:03;;;;;;;19.13;11.90;;;18.70;68.30;;;17.78;65.71;95541.00;4960484;28;20042;-70
2021/07/24 02:35:29;;;;;;;18.38;12.38;;;18.60;68.40;;;17.75;66.13;95553.72;4959343;28;20092;-71
2021/07/24 02:37:54;;;;;;;17.42;12.23;;;18.70;68.50;;;17.72;65.58;95562.22;4998153;28;20045;-71
2021/07/24 02:40:21;;;;;;;16.50;12.65;;;18.60;68.50;;;17.66;65.69;95571.16;4984856;28;20054;-71
2021/07/24 02:42:48;;;;;;;18.77;12.68;;;18.60;68.80;;;17.62;66.20;95570.00;4970055;28;20042;-71
2021/07/24 02:45:13;;;;;;;16.40;13.05;;;18.60;69.10;;;17.57;65.93;95566.47;4958563;28;20046;-70
2021/07/24 02:47:39;;;;;;;17.52;12.57;;;18.60;69.20;;;17.48;67.08;95568.78;4975100;28;20042;-70
2021/07/24 02:50:05;;;;;;;16.77;13.18;;;18.50;69.60;;;17.42;67.30;95559.09;4957654;28;20026;-71
2021/07/24 02:52:31;;;;;;;17.05;12.98;;;18.40;70.00;;;17.34;66.75;95552.34;4975323;28;20502;-71
2021/07/24 02:54:57;;;;;;;15.82;12.75;;;18.40;70.00;;;17.33;67.46;95555.25;4959869;28;20047;-69
2021/07/24 02:57:22;;;;;;;14.38;12.25;;;18.30;69.60;;;17.33;66.86;95555.25;4973058;28;20038;-70
2021/07/24 02:59:48;;;;;;;17.48;12.68;;;18.30;69.30;;;17.31;66.36;95566.13;4972944;28;20394;-70
2021/07/24 03:02:17;;;;;;;14.98;12.20;;;18.30;69.10;;;17.32;67.30;95567.75;4972730;28;20537;-72
2021/07/24 03:04:43;;;;;;;15.75;13.00;;;18.40;69.10;;;17.29;66.75;95570.88;4940868;28;20069;-71
2021/07/24 03:07:09;;;;;;;18.23;13.52;;;18.30;69.30;;;17.27;67.35;95569.53;4939780;28;20038;-71
2021/07/24 03:09:35;;;;;;;15.85;12.57;;;18.30;69.40;;;17.20;67.51;95576.84;4955460;28;20038;-71
2021/07/24 03:12:00;;;;;;;16.85;13.38;;;18.20;69.50;;;17.18;66.99;95578.94;4966277;28;20047;-71
2021/07/24 03:14:26;;;;;;;16.90;13.23;;;18.20;69.70;;;17.20;67.31;95579.50;4964671;28;20042;-71
2021/07/24 03:16:52;;;;;;;16.30;12.77;;;18.20;69.70;;;17.18;67.29;95584.25;4974261;28;20039;-71
2021/07/24 03:19:18;;;;;;;18.73;13.50;;;18.20;69.80;;;17.16;67.53;95581.84;4970883;28;20129;-71
2021/07/24 03:21:43;;;;;;;17.00;12.27;;;18.10;69.80;;;17.13;67.24;95582.34;4939026;28;20085;-74
2021/07/24 03:24:09;;;;;;;17.45;13.00;;;18.10;69.80;;;17.14;66.97;95591.91;4956863;28;20076;-75
2021/07/24 03:26:35;;;;;;;18.25;12.35;;;18.20;69.70;;;17.11;67.49;95593.19;4987751;28;20044;-74
2021/07/24 03:29:01;;;;;;;20.30;13.55;;;18.10;69.80;;;17.10;67.52;95588.13;4957022;28;20045;-73
2021/07/24 03:31:26;;;;;;;18.67;13.05;;;18.10;69.70;;;17.08;67.33;95596.34;4981981;28;20042;-73
2021/07/24 03:33:52;;;;;;;19.60;12.88;;;18.10;69.90;;;17.09;67.49;95592.66;4957542;28;20046;-74
2021/07/24 03:36:18;;;;;;;15.48;12.00;;;18.10;70.00;;;17.09;68.10;95594.50;4990829;28;20038;-71
2021/07/24 03:38:44;;;;;;;19.33;13.75;;;18.10;70.00;;;17.09;67.81;95587.31;4951595;28;20038;-71
2021/07/24 03:41:10;;;;;;;16.58;12.45;;;18.10;69.60;;;17.08;67.87;95580.41;4989944;28;20093;-70
2021/07/24 03:43:35;;;;;;;17.45;13.55;;;18.10;69.70;;;17.09;68.12;95574.03;4990393;28;20094;-71
2021/07/24 03:46:01;;;;;;;16.25;12.50;;;18.20;69.50;;;17.09;67.61;95571.38;4973301;28;20458;-70
2021/07/24 03:48:27;;;;;;;17.42;13.15;;;18.20;69.60;;;17.12;67.81;95565.56;4974034;28;20516;-71
2021/07/24 03:50:53;;;;;;;19.65;13.73;;;18.20;69.50;;;17.09;68.00;95563.41;4973266;28;20039;-71
2021/07/24 03:53:18;;;;;;;15.85;13.10;;;18.20;69.30;;;17.09;67.89;95565.25;4989736;28;20555;-71
2021/07/24 03:55:44;;;;;;;20.35;13.52;;;18.20;69.40;;;17.06;67.53;95563.09;4958988;28;20043;-71
2021/07/24 03:58:10;;;;;;;17.23;12.98;;;18.10;69.50;;;17.06;67.51;95565.75;4938440;28;20074;-71
2021/07/24 04:00:48;;;;;;;17.33;13.02;;;18.20;69.70;;;17.06;67.92;95561.25;4938561;28;20030;-72
2021/07/24 04:03:13;;;;;;;17.58;13.38;;;18.20;69.70;;;17.05;67.57;95564.16;4957916;28;20037;-72
2021/07/24 04:05:42;;;;;;;17.15;12.93;;;18.10;69.80;;;17.03;68.07;95561.72;4973609;28;20046;-71
2021/07/24 04:08:07;;;;;;;17.33;13.23;;;18.10;69.60;;;17.01;67.90;95558.50;4957153;28;20026;-71
2021/07/24 04:10:34;;;;;;;17.65;13.18;;;18.10;69.70;;;17.01;68.47;95553.19;4956702;28;20050;-71
2021/07/24 04:13:02;;;;;;;17.50;13.20;;;18.10;69.90;;;17.01;68.21;95547.09;4973450;28;20450;-71
2021/07/24 04:15:28;;;;;;;19.40;13.15;;;18.20;69.90;;;17.01;68.17;95547.88;4971301;28;20042;-72
2021/07/24 04:17:53;;;;;;;15.80;12.73;;;18.20;70.10;;;17.00;68.34;95540.16;4953442;28;20035;-71
2021/07/24 04:20:21;;;;;;;15.25;13.00;;;18.10;70.40;;;16.99;69.07;95534.03;4939643;28;20084;-72
2021/07/24 04:22:47;;;;;;;23.65;13.35;;;18.10;70.50;;;16.99;68.93;95535.91;4989094;28;20109;-71
2021/07/24 04:25:13;;;;;;;15.77;12.90;;;18.20;70.70;;;17.03;68.64;95544.97;4969962;28;20113;-71
2021/07/24 04:27:41;;;;;;;17.13;12.90;;;18.20;70.80;;;17.01;68.91;95542.56;4970024;28;20038;-73
2021/07/24 04:30:07;;;;;;;15.13;12.32;;;18.10;70.80;;;17.00;69.20;95535.66;4966879;28;20044;-74
2021/07/24 04:32:33;;;;;;;16.65;12.98;;;18.20;71.10;;;16.99;69.72;95536.69;4987337;28;20057;-74
2021/07/24 04:34:58;;;;;;;18.05;12.90;;;18.20;71.40;;;17.02;69.68;95543.38;4957243;28;20860;-75
2021/07/24 04:37:24;;;;;;;20.58;13.55;;;18.20;71.20;;;17.04;69.30;95547.41;4975468;28;20546;-74
2021/07/24 04:39:50;;;;;;;14.57;12.13;;;18.20;71.00;;;17.11;69.09;95548.03;4988464;28;20395;-75
2021/07/24 04:42:16;;;;;;;15.23;12.30;;;18.30;70.80;;;17.14;69.18;95552.84;4957265;28;20621;-74
2021/07/24 04:44:41;;;;;;;17.17;12.23;;;18.40;70.80;;;17.18;69.20;95552.34;4973300;28;20034;-74
2021/07/24 04:47:07;;;;;;;15.45;11.75;;;18.40;70.40;;;17.22;68.93;95542.88;4973073;28;20398;-75
2021/07/24 04:49:33;;;;;;;16.40;12.25;;;18.50;70.30;;;17.24;69.20;95540.78;4973207;28;20050;-75
2021/07/24 04:52:00;;;;;;;18.77;12.48;;;18.50;69.50;;;17.29;69.01;95546.16;4943211;28;20141;-75
2021/07/24 04:54:26;;;;;;;15.25;11.60;;;18.50;69.40;;;17.34;68.03;95540.91;4938256;28;20043;-75
2021/07/24 04:56:51;;;;;;;16.10;12.25;;;18.60;69.20;;;17.35;68.12;95532.69;4937382;28;20035;-75
2021/07/24 04:59:17;;;;;;;19.10;11.40;;;18.60;69.60;;;17.40;68.07;95534.59;4922027;28;20093;-75
2021/07/24 05:01:43;;;;;;;16.70;11.93;;;18.60;69.50;;;17.42;68.87;95537.81;4937684;28;20051;-75
2021/07/24 05:04:09;;;;;;;14.85;11.63;;;18.60;69.70;;;17.46;68.72;95520.34;4953247;28;20089;-74
2021/07/24 05:06:35;;;;;;;13.05;9.30;;;18.70;69.80;;;17.52;68.85;95522.03;4956689;28;20403;-76
2021/07/24 05:09:02;;;;;;;16.75;12.07;;;18.80;69.70;;;17.53;68.57;95518.31;4956431;28;20034;-75
2021/07/24 05:11:27;;;;;;;15.48;12.35;;;18.80;69.50;;;17.56;68.96;95512.50;4989027;28;20031;-75
2021/07/24 05:13:53;;;;;;;16.40;12.38;;;18.80;69.90;;;17.59;68.39;95511.19;4988494;28;20050;-75
2021/07/24 05:16:19;;;;;;;17.17;11.73;;;18.90;69.80;;;17.63;68.95;95523.75;4973059;28;20035;-75
2021/07/24 05:18:44;;;;;;;16.75;12.00;;;19.00;69.70;;;17.67;68.69;95519.59;4972588;28;20070;-74
2021/07/24 05:21:16;;;;;;;20.08;13.27;;;19.00;69.40;;;17.73;68.39;95529.22;4940733;28;20041;-75
2021/07/24 05:23:42;;;;;;;20.80;14.05;;;19.10;68.30;;;17.82;68.26;95531.44;4957210;28;20062;-74
2021/07/24 05:26:15;;;;;;;23.40;13.27;;;19.20;68.00;;;17.91;68.54;95536.09;4972256;28;20477;-75
2021/07/24 05:28:42;;;;;;;27.77;13.20;;;19.30;68.00;;;18.02;67.56;95539.69;4972975;28;20506;-75
2021/07/24 05:31:25;;;;;;;20.45;12.70;;;19.40;68.10;;;18.12;68.68;95545.13;4957875;28;20039;-74
2021/07/24 05:33:50;;;;;;;23.35;12.93;;;19.50;67.70;;;18.18;67.72;95538.78;4972410;28;20500;-73
2021/07/24 05:36:16;;;;;;;19.95;12.13;;;19.60;67.00;;;18.26;67.21;95537.53;4972341;28;20077;-76
2021/07/24 05:38:42;;;;;;;22.65;12.40;;;19.70;66.80;;;18.36;67.27;95538.47;4971786;28;20038;-75
2021/07/24 05:41:08;;;;;;;18.33;12.07;;;19.80;66.80;;;18.45;66.59;95530.81;4972640;28;20700;-74
2021/07/24 05:43:33;;;;;;;21.98;12.43;;;19.90;66.80;;;18.54;67.01;95523.97;4975060;28;20030;-75
2021/07/24 05:46:00;;;;;;;19.08;12.68;;;20.10;66.70;;;18.68;66.83;95521.72;4991971;28;20140;-75
2021/07/24 05:48:26;;;;;;;15.63;12.00;;;20.20;66.30;;;18.79;66.91;95506.63;4976608;28;20042;-75
2021/07/24 05:50:52;;;;;;;16.55;11.15;;;20.30;65.60;;;18.90;66.86;95514.44;4975198;28;20038;-74
2021/07/24 05:53:18;;;;;;;26.42;13.45;;;20.50;65.10;;;19.00;65.85;95510.22;4960012;28;20053;-75
2021/07/24 05:55:43;;;;;;;20.63;12.98;;;20.60;64.50;;;19.11;66.62;95514.59;4991684;28;20035;-75
2021/07/24 05:58:09;;;;;;;25.13;12.45;;;20.70;64.70;;;19.22;65.73;95513.56;4986534;28;20379;-76
2021/07/24 06:00:35;;;;;;;26.10;12.98;;;20.90;64.10;;;19.37;65.38;95521.69;4976652;28;20557;-75
2021/07/24 06:03:00;;;;;;;17.50;11.75;;;21.10;63.30;;;19.50;65.00;95523.91;4980465;28;20089;-75
2021/07/24 06:05:26;;;;;;;16.58;11.48;;;21.30;62.70;;;19.65;65.66;95509.03;4941340;28;20043;-75
2021/07/24 06:07:52;;;;;;;15.50;11.60;;;21.50;62.10;;;19.81;64.81;95500.84;4987062;28;20414;-75
2021/07/24 06:10:18;;;;;;;14.93;11.48;;;21.70;62.00;;;19.94;63.60;95504.09;4976470;28;20514;-76
2021/07/24 06:12:48;;;;;;;20.00;11.90;;;21.80;60.20;;;20.06;64.05;95494.78;4963889;28;20042;-78
2021/07/24 06:15:13;;;;;;;17.30;11.10;;;22.00;60.10;;;20.25;63.11;95492.44;4976320;28;20042;-75
2021/07/24 06:17:39;;;;;;;14.27;11.23;;;22.20;59.70;;;20.37;63.25;95484.97;4980310;28;20070;-75
2021/07/24 06:20:05;;;;;;;15.80;11.25;;;22.30;58.80;;;20.52;63.35;95494.09;4959360;28;20147;-76
2021/07/24 06:22:31;;;;;;;13.68;10.85;;;22.60;58.40;;;20.72;62.76;95510.94;4973148;28;20047;-70
2021/07/24 06:24:57;;;;;;;14.63;11.00;;;23.00;57.70;;;20.89;62.31;95520.56;4981165;28;20061;-75
2021/07/24 06:27:22;;;;;;;15.45;11.10;;;23.20;57.00;;;21.08;61.73;95527.00;4990397;28;20030;-72
2021/07/24 06:29:48;;;;;;;15.13;10.88;;;23.30;57.20;;;21.20;61.67;95516.00;4990491;28;20257;-70
2021/07/24 06:32:14;;;;;;;14.48;11.30;;;23.30;57.20;;;21.31;61.10;95518.44;4990945;28;20518;-72
2021/07/24 06:34:40;;;;;;;13.70;10.75;;;23.30;57.20;;;21.36;60.77;95513.06;4975401;28;20506;-70
2021/07/24 06:37:06;;;;;;;15.85;11.05;;;23.20;57.30;;;21.35;60.83;95516.00;4974830;28;20108;-78
2021/07/24 06:39:32;;;;;;;15.40;10.57;;;23.10;57.30;;;21.35;60.87;95519.47;4991283;28;20039;-77
2021/07/24 06:41:58;;;;;;;13.73;10.98;;;23.00;57.50;;;21.29;60.48;95514.44;4970513;28;20113;-72
2021/07/24 06:44:24;;;;;;;15.20;11.13;;;22.90;57.80;;;21.24;61.04;95517.88;4927360;28;20054;-76
2021/07/24 06:46:49;;;;;;;13.98;11.32;;;22.90;58.40;;;21.26;60.73;95531.00;4975451;28;20147;-72
2021/07/24 06:49:15;;;;;;;17.90;10.68;;;23.10;58.30;;;21.33;61.62;95534.22;4971252;28;20118;-73
2021/07/24 06:51:41;;;;;;;14.35;11.27;;;23.20;58.10;;;21.44;61.40;95559.84;4971115;28;20039;-72
2021/07/24 06:54:06;;;;;;;12.98;10.65;;;23.50;58.40;;;21.55;61.14;95582.06;4954760;28;20117;-72
2021/07/24 06:56:33;;;;;;;14.50;11.65;;;23.60;57.60;;;21.62;60.67;95593.28;4988434;28;20066;-73
2021/07/24 06:58:58;;;;;;;12.77;10.75;;;23.50;56.30;;;21.71;60.45;95581.75;4974182;28;20043;-76
2021/07/24 07:01:24;;;;;;;16.20;11.95;;;23.70;56.20;;;21.83;59.96;95573.44;4973496;28;20046;-76
2021/07/24 07:03:50;;;;;;;13.73;11.18;;;24.00;55.40;;;21.96;60.06;95572.84;4955877;28;20031;-73
2021/07/24 07:06:16;;;;;;;16.33;10.80;;;24.10;55.50;;;22.11;60.16;95565.84;4974664;28;20041;-73
2021/07/24 07:08:42;;;;;;;16.20;11.02;;;24.50;55.20;;;22.31;59.65;95571.13;4971294;28;20525;-73
2021/07/24 07:11:08;;;;;;;12.98;10.68;;;24.70;54.20;;;22.53;59.63;95576.91;4953138;28;20085;-76
2021/07/24 07:13:34;;;;;;;11.57;10.13;;;25.00;53.50;;;22.76;58.21;95570.06;4972167;28;20102;-75
2021/07/24 07:16:07;;;;;;;14.50;10.20;;;25.30;51.40;;;22.95;56.34;95578.28;4987622;28;20039;-75
2021/07/24 07:18:32;;;;;;;14.68;9.73;;;25.40;51.30;;;23.15;57.76;95583.47;4941551;28;20026;-75
2021/07/24 07:20:58;;;;;;;15.40;10.48;;;25.70;52.00;;;23.41;57.55;95592.13;4972299;28;20038;-75
2021/07/24 07:23:24;;;;;;;11.77;9.80;;;26.00;50.80;;;23.71;57.12;95588.34;4955889;28;20399;-75
2021/07/24 07:25:50;;;;;;;13.15;10.05;;;26.40;50.70;;;24.00;57.01;95587.53;4939979;28;20031;-75
2021/07/24 07:28:16;;;;;;;11.93;9.52;;;26.80;48.80;;;24.33;55.68;95594.69;4957759;28;20038;-75
2021/07/24 07:30:41;;;;;;;13.10;9.65;;;27.20;46.60;;;24.62;54.90;95599.94;4958793;28;20121;-76
2021/07/24 07:33:07;;;;;;;12.18;9.43;;;27.20;46.50;;;24.83;54.10;95603.13;4958628;28;20061;-75
2021/07/24 07:35:33;;;;;;;14.40;9.45;;;27.30;46.90;;;25.00;53.35;95605.34;4942634;28;20030;-75
2021/07/24 07:37:59;;;;;;;12.57;9.60;;;27.40;46.30;;;25.11;52.77;95606.78;4976780;28;20037;-75
2021/07/24 07:40:25;;;;;;;14.23;9.80;;;27.40;45.90;;;25.20;52.62;95615.81;4990841;28;20041;-74
2021/07/24 07:42:50;;;;;;;12.82;10.05;;;27.40;47.00;;;25.30;52.70;95626.41;4971576;28;20031;-75
2021/07/24 07:45:16;;;;;;;11.00;9.13;;;27.40;47.20;;;25.46;53.03;95635.03;4939554;28;20027;-75
2021/07/24 07:47:42;;;;;;;12.73;9.85;;;27.70;47.10;;;25.65;52.83;95637.69;4970942;28;20042;-74
2021/07/24 07:50:09;;;;;;;16.30;10.05;;;27.80;47.20;;;25.74;52.37;95641.31;4938557;28;20418;-75
2021/07/24 07:52:34;;;;;;;12.98;9.25;;;27.80;47.00;;;25.78;52.42;95642.31;4969438;28;20030;-75
2021/07/24 07:55:00;;;;;;;14.93;9.88;;;27.70;47.70;;;25.79;51.82;95657.41;4989972;28;20039;-75
2021/07/24 07:57:26;;;;;;;14.48;9.48;;;27.50;46.70;;;25.72;51.66;95657.00;4957530;28;20049;-75
2021/07/24 07:59:52;;;;;;;12.60;9.75;;;27.50;47.40;;;25.68;51.66;95652.50;4989348;28;20470;-71
2021/07/24 08:02:18;;;;;;;12.65;9.80;;;27.20;47.60;;;25.57;51.66;95657.22;4973852;28;20041;-74
2021/07/24 08:04:43;;;;;;;14.32;10.38;;;27.00;47.80;;;25.50;51.53;95652.22;4973997;28;20030;-75
2021/07/24 08:07:09;;;;;;;14.23;9.35;;;26.80;48.40;;;25.43;51.06;95657.19;4989516;28;20065;-75
2021/07/24 08:09:35;;;;;;;15.38;10.23;;;26.80;48.30;;;25.42;51.72;95655.59;4990025;28;20038;-75
2021/07/24 08:12:01;;;;;;;13.93;9.68;;;26.90;49.90;;;25.38;51.36;95649.19;4966085;28;20046;-76
2021/07/24 08:14:26;;;;;;;13.05;10.25;;;26.60;48.30;;;25.26;51.29;95651.50;4985425;28;20121;-75
2021/07/24 08:16:53;;;;;;;14.73;10.15;;;26.50;48.90;;;25.16;51.20;95652.47;4979807;28;20080;-75
2021/07/24 08:19:18;;;;;;;12.38;9.77;;;26.40;49.70;;;25.10;51.79;95658.22;4958050;28;20046;-76
2021/07/24 08:21:44;;;;;;;13.27;9.73;;;26.30;50.20;;;25.06;51.48;95657.19;4989664;28;20406;-75
2021/07/24 08:24:10;;;;;;;13.82;10.05;;;26.40;50.40;;;24.98;52.04;95655.94;4973448;28;20033;-74
2021/07/24 08:26:35;;;;;;;13.63;10.63;;;26.30;51.00;;;24.89;52.06;95654.97;4944382;28;20039;-77
2021/07/24 08:29:02;;;;;;;19.92;12.30;;;26.00;50.00;;;24.76;51.60;95653.03;4969068;28;20081;-72
2021/07/24 08:31:28;;;;;;;16.63;11.85;;;25.80;50.70;;;24.65;51.77;95652.34;4958242;28;20525;-70
2021/07/24 08:33:54;;;;;;;13.77;10.65;;;25.70;51.50;;;24.54;52.58;95657.06;4972977;28;20093;-71
2021/07/24 08:36:20;;;;;;;17.55;10.80;;;25.60;52.50;;;24.54;52.82;95650.88;4970157;28;20034;-72
2021/07/24 08:38:45;;;;;;;14.27;10.65;;;25.90;52.80;;;24.54;53.50;95656.25;4961891;28;20100;-72
2021/07/24 08:41:15;;;;;;;17.15;10.20;;;25.90;52.70;;;24.50;54.08;95649.84;4988402;28;20078;-68
2021/07/24 08:43:44;;;;;;;19.88;11.70;;;25.80;53.30;;;24.46;53.73;95632.72;4971949;28;20610;-73
2021/07/24 08:46:11;;;;;;;16.52;11.98;;;25.80;52.60;;;24.40;53.88;95640.00;4973526;28;20087;-75
2021/07/24 08:48:37;;;;;;;16.30;12.20;;;25.80;52.40;;;24.38;53.46;95634.13;4973366;28;20498;-74
2021/07/24 08:51:02;;;;;;;15.40;10.88;;;25.70;52.50;;;24.34;54.29;95622.34;4989683;28;20038;-72
2021/07/24 08:53:28;;;;;;;16.35;11.55;;;25.70;54.10;;;24.28;54.33;95618.94;4988651;28;20064;-74
2021/07/24 08:56:02;;;;;;;16.65;11.20;;;25.60;54.80;;;24.24;55.32;95609.81;4956393;28;20058;-73
2021/07/24 08:58:27;;;;;;;16.25;11.57;;;25.60;55.00;;;24.24;55.02;95598.28;4989038;28;20467;-72
2021/07/24 09:00:53;;;;;;;16.15;11.25;;;25.70;54.50;;;24.22;55.54;95601.25;4940293;28;20105;-72
2021/07/24 09:03:19;;;;;;;16.17;11.55;;;25.70;55.20;;;24.19;55.89;95596.41;4989050;28;20514;-73
2021/07/24 09:05:49;;;;;;;14.90;11.23;;;25.60;55.40;;;24.18;55.96;95594.03;4972533;28;20129;-73
2021/07/24 09:08:15;;;;;;;14.55;11.02;;;25.60;55.40;;;24.17;56.03;95598.59;4972126;28;20057;-73
2021/07/24 09:10:41;;;;;;;16.40;10.80;;;25.60;56.60;;;24.18;56.38;95589.44;4970448;28;20498;-69
2021/07/24 09:13:06;;;;;;;14.25;10.77;;;25.60;56.80;;;24.18;56.64;95589.44;4940468;28;20035;-69
2021/07/24 09:15:32;;;;;;;14.05;11.23;;;25.70;57.00;;;24.20;56.92;95581.91;4955663;28;20104;-70
2021/07/24 09:17:58;;;;;;;16.52;10.43;;;25.70;57.00;;;24.24;56.95;95574.88;4969819;28;20650;-69
2021/07/24 09:20:26;;;;;;;15.80;10.20;;;25.80;56.70;;;24.26;57.26;95570.00;4953420;28;20086;-70
2021/07/24 09:22:53;;;;;;;13.95;10.43;;;25.80;56.10;;;24.30;56.66;95571.06;4972770;28;20621;-75
2021/07/24 09:25:21;;;;;;;16.50;12.80;;;25.90;56.20;;;24.34;56.47;95572.09;4966234;28;20022;-72
2021/07/24 09:27:54;;;;;;;19.88;11.40;;;25.80;55.90;;;24.35;57.35;95562.94;4971963;28;20034;-69
2021/07/24 09:30:38;;;;;;;14.05;10.73;;;25.90;56.10;;;24.37;57.60;95558.06;4978347;28;20609;-70
2021/07/24 09:33:08;;;;;;;14.45;10.43;;;25.80;56.50;;;24.36;56.67;95555.66;4941885;28;20041;-70
2021/07/24 09:35:38;;;;;;;14.43;10.15;;;25.80;55.30;;;24.32;56.68;95552.75;4972930;28;20501;-69
2021/07/24 09:38:05;;;;;;;13.50;9.98;;;25.80;55.30;;;24.30;56.86;95571.06;4963178;28;20084;-69
2021/07/24 09:40:33;;;;;;;15.50;10.52;;;25.60;56.60;;;24.28;56.90;95592.06;4968749;28;20030;-69
2021/07/24 09:42:59;;;;;;;15.95;11.55;;;25.60;56.90;;;24.25;56.49;95592.59;4968121;28;20050;-68
2021/07/24 09:45:25;;;;;;;15.23;11.27;;;25.60;55.50;;;24.22;56.04;95601.25;4951838;28;20035;-72
2021/07/24 09:47:53;;;;;;;19.65;11.20;;;25.50;55.50;;;24.21;56.58;95618.44;4952734;28;20466;-70
2021/07/24 09:50:19;;;;;;;18.88;11.55;;;25.50;56.40;;;24.22;56.31;95622.75;4955263;28;20466;-70
2021/07/24 09:52:52;;;;;;;16.13;12.15;;;25.60;55.80;;;24.28;56.81;95610.03;4965714;28;20093;-74
2021/07/24 09:55:22;;;;;;;16.50;11.50;;;25.80;55.40;;;24.40;56.40;95608.56;4953323;28;20031;-70
2021/07/24 09:57:49;;;;;;;20.83;12.15;;;26.00;55.00;;;24.56;56.24;95611.84;4952834;28;20046;-73
2021/07/24 10:00:28;;;;;;;18.42;11.68;;;26.40;54.70;;;24.90;56.20;95610.88;4953583;28;20035;-71
2021/07/24 10:03:07;;;;;;;20.53;10.93;;;27.10;53.00;;;25.34;55.00;95615.84;4968863;28;20027;-72
2021/07/24 10:05:38;;;;;;;13.63;10.88;;;28.00;49.60;;;25.84;54.62;95613.41;4963859;28;20097;-72
2021/07/24 10:08:15;;;;;;;15.98;11.85;;;28.80;47.90;;;26.38;52.45;95611.88;4986119;28;20052;-76
2021/07/24 10:10:42;;;;;;;14.38;11.20;;;29.50;45.40;;;26.83;52.92;95602.00;4970017;28;20045;-75